Time;durP1;ratioP1;P1;durP2;ratioP2;P2;SDS_P1;SDS_P2;PMS_P1;PMS_P2;Temp;Humidity;BMP_temperature;BMP_pressure;BME280_temperature;BME280_humidity;BME280_pressure;Samples;Min_cycle;Max_cycle;Signal;HPM_P1;HPM_P2
2023/01/17 00:01:23;;;;;;;62.50;37.80;;;;;;;3.70;76.90;97416.65;128762;1259;114904;-62
2023/01/17 00:11:21;;;;;;;61.00;38.10;;;;;;;3.46;77.37;97403.60;128869;1251;113489;-63
2023/01/17 00:14:31;;;;;;;58.40;38.20;;;;;;;3.41;77.39;97407.14;128751;1251;128791;-64
2023/01/17 00:17:38;;;;;;;60.10;37.80;;;;;;;3.37;77.42;97407.77;128887;1256;114703;-62
2023/01/17 01:34:44;;;;;;;74.40;41.30;;;;;;;2.24;79.39;97413.35;128822;1251;114801;-65
2023/01/17 01:37:49;;;;;;;70.40;43.40;;;;;;;2.22;79.53;97416.67;128893;1256;128661;-64
2023/01/17 01:40:55;;;;;;;65.60;38.20;;;;;;;2.20;79.51;97413.27;128898;1255;114718;-64
2023/01/17 01:44:00;;;;;;;78.20;43.60;;;;;;;2.18;79.71;97415.01;128740;1258;113585;-62
2023/01/17 01:47:06;;;;;;;68.90;39.40;;;;;;;2.14;79.73;97412.76;128821;1251;113554;-63
2023/01/17 01:50:11;;;;;;;61.20;37.20;;;;;;;2.11;79.49;97411.54;128791;1274;113442;-62
2023/01/17 01:53:19;;;;;;;58.90;34.90;;;;;;;2.09;79.96;97403.54;128946;1254;127708;-63
2023/01/17 01:56:24;;;;;;;65.90;37.20;;;;;;;2.09;79.78;97399.89;128840;1251;114731;-63
2023/01/17 01:59:30;;;;;;;62.90;33.80;;;;;;;2.08;79.75;97395.36;128725;1251;114746;-62
2023/01/17 02:02:35;;;;;;;61.80;35.70;;;;;;;2.06;80.02;97392.10;128807;1256;113583;-63
2023/01/17 02:05:41;;;;;;;;;;;;;;;2.05;80.10;97386.39;128763;1251;113488;-63
2023/01/17 02:08:47;;;;;;;32.70;20.70;;;;;;;2.02;79.99;97383.61;128791;1254;127726;-63
2023/01/17 02:11:54;;;;;;;47.40;27.70;;;;;;;1.99;79.90;97389.60;128799;1259;114978;-63
2023/01/17 02:15:01;;;;;;;51.10;26.90;;;;;;;1.96;79.86;97386.73;128795;1256;113541;-63
2023/01/17 02:18:25;;;;;;;44.80;25.90;;;;;;;1.93;79.79;97383.57;128846;1251;113350;-62
2023/01/17 02:21:46;;;;;;;42.20;24.10;;;;;;;1.90;79.87;97383.26;128798;1258;113536;-62
2023/01/17 02:25:36;;;;;;;34.70;20.30;;;;;;;1.87;80.05;97383.11;128786;1251;127736;-66
2023/01/17 02:29:23;;;;;;;25.90;15.20;;;;;;;1.83;79.83;97384.72;128341;1259;115360;-63
2023/01/17 02:32:59;;;;;;;26.60;16.00;;;;;;;1.81;79.70;97384.84;128197;1259;113580;-63
2023/01/17 02:36:35;;;;;;;27.70;16.50;;;;;;;1.81;79.59;97383.96;128315;1259;114058;-65
2023/01/17 02:39:44;;;;;;;15.70;9.90;;;;;;;1.79;79.37;97379.89;128302;1263;113298;-63
2023/01/17 02:42:52;;;;;;;16.60;9.30;;;;;;;1.79;79.67;97374.06;128187;1259;127715;-63
2023/01/17 02:46:02;;;;;;;10.50;7.70;;;;;;;1.80;79.57;97370.65;128197;1264;113958;-63
2023/01/17 02:49:06;;;;;;;;;;;;;;;1.81;79.40;97368.83;128330;1259;113424;-62
2023/01/17 02:52:15;;;;;;;16.40;8.50;;;;;;;1.82;79.44;97358.23;128477;1264;114995;-63
2023/01/17 02:55:52;;;;;;;13.20;8.80;;;;;;;1.82;79.45;97348.38;128239;1259;113285;-64
2023/01/17 02:59:35;;;;;;;12.90;8.70;;;;;;;1.82;79.24;97357.84;128265;1259;127937;-63
2023/01/17 03:02:57;;;;;;;13.10;8.00;;;;;;;1.83;79.26;97362.55;128520;1264;115265;-63
2023/01/17 03:06:33;;;;;;;12.50;8.10;;;;;;;1.82;79.19;97355.23;128835;1256;113227;-65
2023/01/17 03:09:42;;;;;;;13.70;7.80;;;;;;;1.80;79.29;97352.70;128735;1251;113632;-62
2023/01/17 03:12:47;;;;;;;12.50;7.50;;;;;;;1.79;79.14;97354.02;128805;1256;113263;-64
2023/01/17 03:15:52;;;;;;;10.20;7.90;;;;;;;1.77;78.92;97366.27;128814;1257;129477;-63
2023/01/17 03:19:01;;;;;;;11.30;7.30;;;;;;;1.76;79.05;97368.64;128770;1256;115871;-63
2023/01/17 03:22:05;;;;;;;10.20;7.00;;;;;;;1.74;79.07;97368.20;128935;1256;113211;-64
2023/01/17 03:25:10;;;;;;;11.50;7.20;;;;;;;1.75;79.07;97376.78;128956;1257;113479;-64
2023/01/17 03:28:16;;;;;;;10.90;7.10;;;;;;;1.76;78.95;97386.43;128779;1251;113348;-62
2023/01/17 03:31:21;;;;;;;12.60;7.50;;;;;;;1.76;79.00;97397.09;128749;1256;127622;-63
2023/01/17 03:34:26;;;;;;;12.90;8.20;;;;;;;1.80;78.94;97398.08;128854;1251;115339;-62
2023/01/17 03:37:31;;;;;;;15.90;9.50;;;;;;;1.88;78.95;97398.33;128811;1251;113515;-63
2023/01/17 03:40:38;;;;;;;24.10;11.60;;;;;;;1.95;79.18;97394.55;128834;1251;115608;-63
2023/01/17 03:43:46;;;;;;;23.60;11.90;;;;;;;2.04;79.17;97394.38;128885;1251;113278;-63
2023/01/17 03:46:54;;;;;;;16.00;9.10;;;;;;;2.12;79.04;97395.27;128802;1257;128727;-64
2023/01/17 03:50:02;;;;;;;11.30;7.00;;;;;;;2.21;79.20;97392.41;128884;1251;115495;-63
2023/01/17 03:53:08;;;;;;;8.80;5.90;;;;;;;2.30;78.85;97386.77;129014;1256;113202;-64
2023/01/17 03:56:13;;;;;;;8.40;5.90;;;;;;;2.37;78.73;97387.01;128768;1255;114884;-64
2023/01/17 03:59:18;;;;;;;12.90;6.40;;;;;;;2.43;78.78;97389.98;128843;1251;114029;-64
2023/01/17 04:02:24;;;;;;;8.00;6.00;;;;;;;2.47;78.43;97397.16;128814;1251;128754;-64
2023/01/17 04:05:29;;;;;;;10.60;5.80;;;;;;;2.50;78.30;97395.57;128739;1253;115253;-63
2023/01/17 04:08:33;;;;;;;12.10;7.20;;;;;;;2.52;78.21;97393.86;128914;1257;113754;-63
2023/01/17 04:11:37;;;;;;;13.40;8.60;;;;;;;2.52;78.36;97392.40;128858;1251;113543;-62
2023/01/17 04:14:42;;;;;;;10.50;5.90;;;;;;;2.53;78.12;97398.02;129000;1251;113177;-64
2023/01/17 04:17:47;;;;;;;;;;;;;;;2.52;78.08;97406.84;128911;1251;127718;-63
2023/01/17 04:20:52;;;;;;;10.40;5.80;;;;;;;2.52;78.20;97413.23;128898;1267;115548;-63
2023/01/17 04:23:57;;;;;;;12.20;6.80;;;;;;;2.53;78.24;97420.01;128953;1256;113418;-62
2023/01/17 04:27:01;;;;;;;;;;;;;;;2.56;78.29;97420.69;129888;1256;114173;-63
2023/01/17 04:30:10;;;;;;;13.80;7.90;;;;;;;2.59;78.11;97419.46;128877;1251;113536;-64
2023/01/17 04:33:15;;;;;;;12.70;7.70;;;;;;;2.60;77.98;97412.72;128942;1251;126892;-63
2023/01/17 04:36:20;;;;;;;12.70;8.00;;;;;;;2.61;77.82;97410.71;128977;1251;115051;-63
2023/01/17 04:39:25;;;;;;;10.90;6.70;;;;;;;2.59;77.71;97409.29;128801;1251;113159;-65
2023/01/17 04:42:31;;;;;;;13.30;7.00;;;;;;;2.55;77.53;97413.21;128772;1251;113208;-65
2023/01/17 04:45:37;;;;;;;13.20;8.00;;;;;;;2.51;77.47;97414.87;128781;1251;113321;-64
2023/01/17 04:48:42;;;;;;;13.10;6.90;;;;;;;2.46;77.50;97420.64;128815;1254;128037;-64
2023/01/17 04:51:46;;;;;;;8.70;6.50;;;;;;;2.41;77.31;97423.06;128846;1251;114748;-64
2023/01/17 04:54:52;;;;;;;10.70;6.20;;;;;;;2.36;77.34;97426.40;128868;1256;113548;-64
2023/01/17 04:57:57;;;;;;;7.70;5.40;;;;;;;2.30;77.27;97423.23;128903;1256;113302;-65
2023/01/17 05:01:02;;;;;;;10.80;5.60;;;;;;;2.25;77.11;97421.61;128819;1251;113213;-64
2023/01/17 05:04:12;;;;;;;10.10;5.20;;;;;;;2.21;77.26;97417.45;128779;1253;128943;-64
2023/01/17 05:07:17;;;;;;;7.70;4.80;;;;;;;2.17;77.10;97415.59;128780;1251;114940;-64
2023/01/17 05:10:24;;;;;;;6.80;4.70;;;;;;;2.15;77.25;97412.38;128872;1254;114655;-63
2023/01/17 05:13:32;;;;;;;5.80;4.50;;;;;;;2.10;77.02;97413.84;128826;1256;113515;-63
2023/01/17 05:16:36;;;;;;;6.60;4.50;;;;;;;2.07;76.96;97411.23;128816;1251;114041;-63
2023/01/17 05:19:42;;;;;;;5.40;3.70;;;;;;;2.05;77.10;97414.72;128876;1254;128692;-63
2023/01/17 05:22:56;;;;;;;6.60;4.30;;;;;;;2.02;77.13;97406.64;128842;1255;114017;-64
2023/01/17 05:26:02;;;;;;;6.00;4.00;;;;;;;2.00;77.31;97392.02;128747;1256;113537;-65
2023/01/17 05:29:07;;;;;;;7.60;4.30;;;;;;;1.97;77.11;97396.55;128956;1251;113184;-63
2023/01/17 05:32:15;;;;;;;5.70;3.60;;;;;;;1.96;77.10;97394.31;128881;1251;114002;-64
2023/01/17 05:35:22;;;;;;;7.30;4.10;;;;;;;1.95;77.25;97393.84;128882;1257;128855;-63
2023/01/17 05:38:27;;;;;;;6.40;4.20;;;;;;;1.94;77.06;97393.05;128949;1253;114690;-64
2023/01/17 05:41:32;;;;;;;4.80;4.00;;;;;;;1.93;77.06;97399.41;129119;1255;113621;-63
2023/01/17 05:44:37;;;;;;;6.50;4.70;;;;;;;1.93;77.10;97405.43;128843;1258;113217;-63
2023/01/17 05:47:41;;;;;;;;;;;;;;;1.93;77.16;97402.44;128961;1267;113479;-63
2023/01/17 05:50:53;;;;;;;7.50;4.80;;;;;;;1.92;76.95;97406.17;129027;1251;127698;-63
2023/01/17 05:54:11;;;;;;;6.40;4.50;;;;;;;1.92;76.96;97411.29;129010;1255;113224;-63
2023/01/17 05:57:17;;;;;;;8.00;4.90;;;;;;;1.93;77.07;97413.48;129012;1251;113512;-64
2023/01/17 06:00:23;;;;;;;5.50;3.60;;;;;;;1.95;77.14;97415.66;128845;1251;113651;-63
2023/01/17 06:03:28;;;;;;;5.60;3.50;;;;;;;1.99;77.08;97418.99;129208;1251;115295;-63
2023/01/17 06:06:33;;;;;;;3.70;3.00;;;;;;;2.02;76.89;97421.42;129088;1256;126756;-65
2023/01/17 06:09:37;;;;;;;7.30;3.60;;;;;;;2.06;76.87;97427.55;129084;1257;114912;-66
2023/01/17 06:12:45;;;;;;;4.80;3.10;;;;;;;2.10;76.88;97433.10;132087;1251;114663;-66
2023/01/17 06:15:51;;;;;;;3.70;3.00;;;;;;;2.13;76.89;97437.62;131505;1251;114275;-65
2023/01/17 06:18:56;;;;;;;7.30;2.90;;;;;;;2.18;76.80;97437.19;130932;1251;113347;-64
2023/01/17 06:22:02;;;;;;;3.80;3.10;;;;;;;2.23;76.65;97441.96;128838;1251;127711;-64
2023/01/17 06:25:09;;;;;;;4.60;3.30;;;;;;;2.26;76.53;97446.52;129037;1251;114454;-62
2023/01/17 06:28:15;;;;;;;4.50;3.40;;;;;;;2.31;76.60;97452.57;128991;1255;113476;-63
2023/01/17 06:31:23;;;;;;;5.50;3.60;;;;;;;2.34;76.34;97460.67;128860;1253;113443;-63
2023/01/17 06:34:28;;;;;;;7.20;3.50;;;;;;;2.36;76.45;97458.23;128865;1251;114754;-64
2023/01/17 06:37:33;;;;;;;5.20;3.30;;;;;;;2.38;76.29;97462.36;129052;1256;129121;-64
2023/01/17 06:40:39;;;;;;;7.80;3.60;;;;;;;2.40;76.27;97462.26;129107;1251;114945;-64
2023/01/17 06:43:44;;;;;;;6.20;3.30;;;;;;;2.40;76.07;97466.46;128978;1256;113494;-65
2023/01/17 06:46:49;;;;;;;6.10;3.70;;;;;;;2.40;76.17;97468.03;129090;1251;113153;-66
2023/01/17 06:49:53;;;;;;;7.10;4.30;;;;;;;2.40;76.01;97475.73;129177;1251;113490;-64
2023/01/17 06:53:03;;;;;;;5.30;3.80;;;;;;;2.40;75.88;97471.20;128963;1255;128691;-64
2023/01/17 06:56:10;;;;;;;10.60;5.90;;;;;;;2.41;75.98;97477.51;128847;1259;115241;-64
2023/01/17 06:59:14;;;;;;;7.80;4.70;;;;;;;2.42;75.78;97480.27;128957;1253;113292;-65
2023/01/17 07:02:22;;;;;;;8.90;4.10;;;;;;;2.42;75.72;97482.52;129032;1256;113728;-65
2023/01/17 07:05:29;;;;;;;8.30;5.00;;;;;;;2.43;75.70;97487.05;128908;1251;113341;-65
2023/01/17 07:08:34;;;;;;;8.50;4.80;;;;;;;2.45;75.68;97485.73;129009;1266;127859;-64
2023/01/17 07:11:39;;;;;;;8.10;4.50;;;;;;;2.47;75.69;97496.19;128767;1251;114819;-65
2023/01/17 07:14:45;;;;;;;7.70;4.30;;;;;;;2.49;75.50;97502.05;128928;1251;114533;-63
2023/01/17 07:17:51;;;;;;;7.40;4.20;;;;;;;2.51;75.57;97503.14;128991;1256;113853;-63
2023/01/17 07:20:57;;;;;;;6.10;3.30;;;;;;;2.53;75.44;97506.48;129120;1255;114710;-63
2023/01/17 07:24:02;;;;;;;6.60;3.90;;;;;;;2.56;75.53;97511.77;128853;1256;127697;-63
2023/01/17 07:27:08;;;;;;;8.40;3.80;;;;;;;2.60;75.31;97513.15;128934;1251;114873;-63
2023/01/17 07:30:14;;;;;;;6.00;2.70;;;;;;;2.63;75.33;97507.84;129281;1251;113567;-63
2023/01/17 07:33:20;;;;;;;8.10;3.30;;;;;;;2.68;75.24;97506.85;129026;1251;114853;-65
2023/01/17 07:36:29;;;;;;;5.80;3.20;;;;;;;2.72;75.30;97516.63;129108;1251;113310;-63
2023/01/17 07:39:36;;;;;;;5.20;3.30;;;;;;;2.77;75.11;97521.94;128234;1251;1136125;-67
2023/01/17 07:42:49;;;;;;;7.60;3.00;;;;;;;2.82;75.16;97527.63;128803;1251;113645;-64
2023/01/17 07:45:54;;;;;;;7.10;3.50;;;;;;;2.87;75.13;97526.27;128964;1256;113143;-65
2023/01/17 07:49:00;;;;;;;6.20;3.70;;;;;;;2.92;74.99;97529.14;129084;1250;113288;-63
2023/01/17 07:52:06;;;;;;;18.50;7.30;;;;;;;2.97;74.94;97533.38;129039;1251;113298;-64
2023/01/17 07:55:11;;;;;;;12.50;5.70;;;;;;;3.02;74.75;97528.51;129090;1255;128702;-63
2023/01/17 07:58:15;;;;;;;;;;;;;;;3.08;74.88;97529.01;129195;1251;113249;-63
2023/01/17 08:01:20;;;;;;;16.20;7.10;;;;;;;3.13;74.66;97535.21;129202;1256;113503;-63
2023/01/17 08:04:33;;;;;;;;;;;;;;;3.20;74.70;97536.02;129480;1256;113166;-63
2023/01/17 08:07:45;;;;;;;9.70;5.10;;;;;;;3.27;74.56;97542.28;129106;1251;114890;-63
2023/01/17 08:10:52;;;;;;;20.00;5.50;;;;;;;3.33;74.82;97546.98;129272;1251;127733;-67
2023/01/17 08:14:00;;;;;;;9.10;3.90;;;;;;;3.40;74.48;97546.39;129284;1256;115366;-64
2023/01/17 08:17:15;;;;;;;8.10;4.20;;;;;;;3.45;74.25;97554.16;131973;1252;114539;-66
2023/01/17 08:20:20;;;;;;;7.60;3.80;;;;;;;3.51;74.10;97557.66;129036;1251;113426;-64
2023/01/17 08:23:25;;;;;;;6.80;3.50;;;;;;;3.55;73.91;97563.58;129074;1251;113432;-66
2023/01/17 08:26:31;;;;;;;;;;;;;;;3.59;73.99;97563.29;128993;1251;127900;-64
2023/01/17 08:29:35;;;;;;;7.10;3.30;;;;;;;3.64;73.89;97563.16;128889;1256;115343;-65
2023/01/17 08:32:40;;;;;;;7.50;3.90;;;;;;;3.69;73.83;97565.63;128978;1256;113796;-64
2023/01/17 08:35:52;;;;;;;6.90;4.00;;;;;;;3.76;73.72;97566.63;128925;1251;115502;-64
2023/01/17 08:38:58;;;;;;;6.90;3.60;;;;;;;3.84;73.60;97572.98;128865;1251;113271;-64
2023/01/17 08:42:03;;;;;;;6.60;3.40;;;;;;;3.93;73.60;97571.88;128805;1266;127751;-67
2023/01/17 08:45:10;;;;;;;7.60;4.10;;;;;;;4.04;73.51;97573.10;128971;1251;115710;-64
2023/01/17 08:48:17;;;;;;;5.70;3.60;;;;;;;4.15;73.31;97577.98;128976;1255;113165;-64
2023/01/17 08:51:25;;;;;;;6.80;3.90;;;;;;;4.26;73.15;97577.98;128960;1251;113203;-66
2023/01/17 08:54:33;;;;;;;5.90;3.10;;;;;;;4.37;73.13;97577.92;128815;1256;115439;-65
2023/01/17 08:57:37;;;;;;;6.30;3.40;;;;;;;4.47;73.12;97585.20;129013;1251;126817;-67
2023/01/17 09:00:42;;;;;;;7.30;3.90;;;;;;;4.59;73.07;97590.59;129082;1251;115323;-66
2023/01/17 09:03:50;;;;;;;5.70;3.30;;;;;;;4.69;72.67;97588.98;129136;1257;113498;-65
2023/01/17 09:06:57;;;;;;;6.30;3.20;;;;;;;4.80;72.70;97594.83;129259;1251;113181;-65
2023/01/17 09:10:02;;;;;;;6.40;3.20;;;;;;;4.92;72.43;97596.44;129276;1251;113970;-63
2023/01/17 09:13:06;;;;;;;6.60;2.90;;;;;;;5.06;72.22;97597.39;129152;1251;127754;-64
2023/01/17 09:16:11;;;;;;;7.20;3.10;;;;;;;5.20;72.14;97603.52;129171;1257;115307;-64
2023/01/17 09:19:21;;;;;;;4.80;3.70;;;;;;;5.31;72.03;97603.80;129136;1255;114696;-64
2023/01/17 09:22:26;;;;;;;7.60;3.20;;;;;;;5.44;71.60;97601.27;129389;1251;113528;-62
2023/01/17 09:25:31;;;;;;;;;;;;;;;5.56;71.47;97606.06;129889;1251;113145;-65
2023/01/17 09:28:39;;;;;;;5.70;3.10;;;;;;;5.66;71.11;97603.75;129392;1251;127765;-66
2023/01/17 09:31:46;;;;;;;6.40;3.70;;;;;;;5.76;71.28;97598.05;129201;1256;115817;-65
2023/01/17 09:34:59;;;;;;;11.30;3.70;;;;;;;5.92;71.17;97596.35;129346;1255;113197;-63
2023/01/17 09:38:05;;;;;;;8.80;3.50;;;;;;;6.07;70.75;97587.67;129234;1255;114066;-63
2023/01/17 09:41:26;;;;;;;7.90;3.70;;;;;;;6.20;70.57;97586.48;129052;1254;113173;-65
2023/01/17 09:44:42;;;;;;;10.40;5.10;;;;;;;6.33;70.55;97588.20;129077;1251;128863;-64
2023/01/17 09:47:51;;;;;;;9.20;4.20;;;;;;;6.45;70.09;97588.20;129321;1251;115873;-64
2023/01/17 09:51:03;;;;;;;7.10;3.40;;;;;;;6.54;69.64;97585.89;129492;1255;114749;-65
2023/01/17 09:54:21;;;;;;;7.00;3.70;;;;;;;6.63;69.22;97589.27;129321;1251;113280;-65
2023/01/17 09:57:33;;;;;;;5.60;3.70;;;;;;;6.73;68.66;97589.42;129206;1253;115192;-65
2023/01/17 10:01:08;;;;;;;7.30;3.70;;;;;;;6.80;68.60;97585.67;129245;1254;128998;-64
2023/01/17 10:04:33;;;;;;;9.70;3.30;;;;;;;6.88;68.16;97579.41;129020;1251;113488;-64
2023/01/17 10:07:46;;;;;;;6.20;2.50;;;;;;;6.88;67.51;97582.79;129165;1259;113728;-65
2023/01/17 10:11:04;;;;;;;5.20;2.70;;;;;;;6.83;66.63;97581.23;129348;1251;113366;-64
2023/01/17 10:14:32;;;;;;;11.20;6.10;;;;;;;6.78;66.31;97587.95;129186;1251;113196;-66
2023/01/17 10:17:55;;;;;;;10.90;5.20;;;;;;;6.74;65.94;97589.17;129258;1251;128440;-63
2023/01/17 10:21:04;;;;;;;48.70;28.40;;;;;;;6.76;65.95;97592.39;129056;1255;115447;-65
2023/01/17 10:24:15;;;;;;;17.50;10.40;;;;;;;6.77;65.84;97595.86;129356;1256;113194;-65
2023/01/17 10:27:48;;;;;;;8.60;7.30;;;;;;;6.79;66.17;97595.48;129604;1251;113192;-64
2023/01/17 10:31:08;;;;;;;8.60;5.90;;;;;;;6.84;65.72;97596.77;129206;1251;113491;-66
2023/01/17 10:34:18;;;;;;;4.10;2.10;;;;;;;6.89;65.30;97598.50;129188;1257;129279;-64
2023/01/17 10:37:44;;;;;;;8.60;4.50;;;;;;;6.96;65.01;97608.02;128984;1258;114456;-64
2023/01/17 10:41:01;;;;;;;6.60;3.40;;;;;;;7.04;64.52;97606.87;128906;1251;113618;-64
2023/01/17 10:44:16;;;;;;;6.90;3.90;;;;;;;7.07;64.19;97609.16;129125;1251;113389;-64
2023/01/17 10:47:26;;;;;;;9.90;4.20;;;;;;;7.09;63.86;97614.31;128902;1251;113226;-65
2023/01/17 10:50:47;;;;;;;9.10;7.00;;;;;;;7.08;63.63;97612.23;129060;1256;127903;-64
2023/01/17 10:54:24;;;;;;;5.00;2.80;;;;;;;7.10;63.16;97609.28;129028;1256;115919;-65
2023/01/17 10:57:51;;;;;;;5.90;5.00;;;;;;;7.13;63.40;97614.21;128894;1256;113196;-65
2023/01/17 11:01:01;;;;;;;7.30;3.40;;;;;;;7.17;63.38;97617.02;128786;1251;113470;-65
2023/01/17 11:04:21;;;;;;;8.40;6.60;;;;;;;7.20;62.92;97613.64;129013;1251;114044;-63
2023/01/17 11:07:27;;;;;;;6.30;4.20;;;;;;;7.20;62.36;97616.95;128988;1251;128127;-66
2023/01/17 11:10:47;;;;;;;5.80;3.70;;;;;;;7.22;62.49;97619.11;128990;1251;114858;-64
2023/01/17 11:13:54;;;;;;;8.20;4.60;;;;;;;7.29;62.11;97612.59;129713;1256;114026;-63
2023/01/17 11:17:03;;;;;;;10.50;7.20;;;;;;;7.39;62.38;97608.96;129154;1251;113190;-64
2023/01/17 11:20:27;;;;;;;8.50;6.40;;;;;;;7.48;61.92;97607.86;128877;1256;113435;-64
2023/01/17 11:23:34;;;;;;;8.60;5.80;;;;;;;7.51;61.74;97604.92;129229;1251;127963;-63
2023/01/17 11:26:48;;;;;;;9.30;4.00;;;;;;;7.53;61.61;97606.92;129304;1251;115213;-64
2023/01/17 11:30:16;;;;;;;7.10;3.50;;;;;;;7.51;61.86;97608.00;129131;1256;114146;-65
2023/01/17 11:33:32;;;;;;;8.70;6.00;;;;;;;7.46;61.67;97607.63;129117;1250;113253;-64
2023/01/17 11:36:38;;;;;;;;;;;;;;;7.40;61.05;97605.50;129070;1251;114276;-63
2023/01/17 11:39:50;;;;;;;10.80;6.90;;;;;;;7.34;61.73;97603.16;129378;1256;127952;-63
2023/01/17 11:43:03;;;;;;;8.80;4.00;;;;;;;7.32;61.61;97605.80;128911;1255;115880;-63
2023/01/17 11:46:17;;;;;;;8.10;4.30;;;;;;;7.25;61.59;97603.99;128894;1251;115323;-64
2023/01/17 11:49:25;;;;;;;6.90;5.00;;;;;;;7.21;60.99;97607.16;128908;1256;113549;-63
2023/01/17 11:52:37;;;;;;;9.80;6.40;;;;;;;7.16;61.40;97609.48;128907;1251;113595;-64
2023/01/17 11:56:13;;;;;;;11.20;7.10;;;;;;;7.13;61.27;97610.95;129046;1257;127785;-62
2023/01/17 11:59:33;;;;;;;7.00;3.80;;;;;;;7.12;61.19;97607.70;129012;1256;114716;-63
2023/01/17 12:03:04;;;;;;;5.50;3.60;;;;;;;7.08;61.12;97605.48;128956;1255;113521;-65
2023/01/17 12:06:29;;;;;;;8.20;4.40;;;;;;;7.07;61.24;97608.11;128902;1257;113574;-64
2023/01/17 12:09:48;;;;;;;4.10;2.40;;;;;;;7.08;60.95;97608.04;128736;1256;113389;-63
2023/01/17 12:17:00;;;;;;;11.20;5.50;;;;;;;7.10;60.70;97611.20;128893;1256;114850;-63
2023/01/17 12:20:15;;;;;;;11.00;4.80;;;;;;;7.11;60.75;97608.33;129102;1256;113839;-64
2023/01/17 12:23:57;;;;;;;6.80;4.40;;;;;;;7.11;60.82;97604.95;129009;1251;113313;-63
2023/01/17 12:27:27;;;;;;;9.70;5.40;;;;;;;7.10;60.50;97596.70;129006;1260;113553;-63
2023/01/17 12:31:06;;;;;;;13.20;7.30;;;;;;;7.06;60.80;97594.66;128879;1264;127625;-63
2023/01/17 12:34:25;;;;;;;6.30;3.50;;;;;;;7.03;60.27;97594.73;129009;1251;114804;-63
2023/01/17 12:37:33;;;;;;;4.70;3.10;;;;;;;6.97;59.83;97591.07;128943;1258;113438;-63
2023/01/17 12:41:02;;;;;;;8.10;4.30;;;;;;;6.94;59.77;97593.29;129060;1256;113187;-64
2023/01/17 12:44:10;;;;;;;6.30;3.80;;;;;;;6.93;59.64;97599.07;128977;1251;113296;-64
2023/01/17 12:47:17;;;;;;;7.90;2.90;;;;;;;6.93;59.92;97599.96;129011;1257;129148;-64
2023/01/17 12:50:42;;;;;;;3.80;2.40;;;;;;;6.93;59.63;97596.40;128836;1257;115544;-64
2023/01/17 12:54:18;;;;;;;7.70;3.90;;;;;;;6.92;59.43;97598.09;129319;1257;113462;-66
2023/01/17 12:57:37;;;;;;;13.30;4.80;;;;;;;6.89;59.32;97594.38;128888;1268;114727;-64
2023/01/17 13:00:46;;;;;;;18.40;4.70;;;;;;;6.84;58.96;97595.84;128884;1260;113473;-62
2023/01/17 13:04:03;;;;;;;16.10;7.70;;;;;;;6.79;59.02;97597.45;128972;1257;127722;-63
2023/01/17 13:07:21;;;;;;;17.50;9.50;;;;;;;6.74;58.74;97598.41;128974;1257;114739;-63
2023/01/17 13:10:38;;;;;;;27.40;17.60;;;;;;;6.66;58.83;97599.54;129113;1256;114552;-64
2023/01/17 13:13:46;;;;;;;13.60;10.00;;;;;;;6.61;58.63;97597.45;129089;1251;113739;-64
2023/01/17 13:17:01;;;;;;;13.00;10.00;;;;;;;6.56;58.81;97602.58;129070;1257;113418;-62
2023/01/17 13:20:13;;;;;;;8.60;5.90;;;;;;;6.52;58.70;97612.27;128957;1251;127734;-64
2023/01/17 13:23:45;;;;;;;10.70;7.80;;;;;;;6.50;58.81;97614.39;129128;1256;115427;-63
2023/01/17 13:27:14;;;;;;;5.00;3.80;;;;;;;6.46;58.35;97623.00;128877;1257;113191;-63
2023/01/17 13:30:42;;;;;;;8.90;4.80;;;;;;;6.41;58.52;97630.17;128974;1259;113471;-64
2023/01/17 13:34:13;;;;;;;12.80;8.40;;;;;;;6.32;58.47;97643.20;129066;1256;113244;-63
2023/01/17 13:38:05;;;;;;;15.30;9.60;;;;;;;6.31;58.76;97660.70;128986;1251;127808;-65
2023/01/17 13:41:12;;;;;;;14.90;10.70;;;;;;;6.30;58.87;97669.80;128802;1261;114712;-65
2023/01/17 13:44:25;;;;;;;;;;;;;;;6.30;58.79;97679.53;128958;1255;113236;-65
2023/01/17 13:47:36;;;;;;;12.80;8.60;;;;;;;6.34;58.84;97689.34;128910;1256;113468;-68
2023/01/17 13:50:47;;;;;;;8.60;5.40;;;;;;;6.40;58.47;97691.40;128814;1257;114641;-67
2023/01/17 13:53:56;;;;;;;3.70;2.50;;;;;;;6.50;58.52;97697.18;129038;1251;127769;-63
2023/01/17 13:57:17;;;;;;;;;;;;;;;6.63;58.41;97699.05;128907;1267;115589;-63
2023/01/17 14:00:28;;;;;;;9.10;6.00;;;;;;;6.72;58.21;97695.02;129014;1258;113419;-62
2023/01/17 14:03:52;;;;;;;9.80;6.00;;;;;;;6.73;57.86;97694.77;128881;1251;114045;-65
2023/01/17 14:07:02;;;;;;;15.20;8.10;;;;;;;6.70;58.09;97696.05;128950;1251;115261;-63
2023/01/17 14:10:41;;;;;;;18.30;8.90;;;;;;;6.63;57.62;97706.47;128804;1260;127731;-64
2023/01/17 14:13:50;;;;;;;34.70;21.70;;;;;;;6.54;57.55;97713.59;128888;1257;114705;-64
2023/01/17 14:17:21;;;;;;;19.60;12.00;;;;;;;6.46;57.58;97724.84;128899;1258;113261;-68
2023/01/17 14:20:49;;;;;;;10.90;5.80;;;;;;;6.35;57.50;97736.61;129007;1257;113479;-62
2023/01/17 14:24:02;;;;;;;10.40;5.10;;;;;;;6.24;57.00;97751.75;129071;1251;113564;-63
2023/01/17 14:27:21;;;;;;;9.20;5.00;;;;;;;6.15;57.12;97762.86;128953;1253;127709;-65
2023/01/17 14:30:38;;;;;;;6.20;4.20;;;;;;;6.08;57.07;97774.32;128848;1251;114840;-71
2023/01/17 14:33:43;;;;;;;9.40;5.80;;;;;;;6.03;57.20;97784.13;128890;1252;113265;-67
2023/01/17 14:36:49;;;;;;;6.50;4.70;;;;;;;5.98;56.95;97796.98;128946;1251;113179;-65
2023/01/17 14:40:29;;;;;;;12.90;9.80;;;;;;;5.92;56.88;97806.61;128900;1251;114850;-66
2023/01/17 14:43:48;;;;;;;11.70;6.30;;;;;;;5.85;56.41;97816.14;129791;1264;128478;-64
2023/01/17 14:46:53;;;;;;;;;;;;;;;5.77;56.48;97815.62;128946;1254;114974;-62
2023/01/17 14:50:21;;;;;;;9.50;5.90;;;;;;;5.68;56.36;97821.80;129004;1257;113419;-63
2023/01/17 14:53:33;;;;;;;10.40;5.90;;;;;;;5.56;56.16;97819.77;129422;1260;114086;-62
2023/01/17 14:56:38;;;;;;;9.70;4.40;;;;;;;5.44;56.48;97816.81;129252;1274;114664;-59
2023/01/17 14:59:45;;;;;;;19.60;10.90;;;;;;;5.32;56.35;97820.65;130026;1251;126746;-60
2023/01/17 15:02:51;;;;;;;12.90;6.50;;;;;;;5.21;56.51;97824.27;129112;1251;114713;-61
2023/01/17 15:06:02;;;;;;;10.30;6.90;;;;;;;5.09;56.53;97824.91;129108;1251;113175;-62
2023/01/17 15:09:19;;;;;;;;;;;;;;;4.95;56.63;97830.23;128831;1251;113234;-62
2023/01/17 15:12:37;;;;;;;20.40;7.90;;;;;;;4.81;56.67;97837.13;129036;1252;114594;-63
2023/01/17 15:15:42;;;;;;;20.70;7.60;;;;;;;4.69;56.85;97836.38;129182;1251;127086;-62
2023/01/17 15:18:47;;;;;;;;;;;;;;;4.57;56.89;97834.98;129352;1256;114709;-62
2023/01/17 15:21:52;;;;;;;9.00;4.80;;;;;;;4.46;57.10;97833.59;129201;1254;113349;-61
2023/01/17 15:24:58;;;;;;;;;;;;;;;4.33;57.17;97834.91;129266;1255;113182;-62
2023/01/17 15:28:12;;;;;;;11.30;5.00;;;;;;;4.23;57.20;97837.52;129051;1257;113864;-62
2023/01/17 15:31:22;;;;;;;9.00;4.90;;;;;;;4.12;57.33;97829.89;129064;1251;128801;-62
2023/01/17 15:34:34;;;;;;;11.60;4.90;;;;;;;4.00;57.31;97824.27;129213;1251;115868;-62
2023/01/17 15:37:40;;;;;;;10.50;5.10;;;;;;;3.91;57.28;97821.31;129374;1256;113230;-61
2023/01/17 15:40:46;;;;;;;9.20;5.30;;;;;;;3.81;57.35;97821.92;129072;1257;113506;-61
2023/01/17 15:43:56;;;;;;;11.10;5.40;;;;;;;3.72;57.44;97823.73;129059;1251;113412;-64
2023/01/17 15:47:04;;;;;;;12.00;5.40;;;;;;;3.62;57.44;97825.39;128816;1252;127845;-64
2023/01/17 15:50:28;;;;;;;19.50;7.70;;;;;;;3.54;57.38;97827.08;128861;1251;114741;-64
2023/01/17 15:53:35;;;;;;;25.10;11.30;;;;;;;3.46;57.63;97821.23;128978;1251;113462;-63
2023/01/17 15:56:40;;;;;;;29.00;16.30;;;;;;;3.37;57.57;97817.89;129020;1252;113402;-64
2023/01/17 16:00:04;;;;;;;;;;;;;;;3.27;57.75;97816.19;129088;1251;113460;-63
2023/01/17 16:03:22;;;;;;;43.60;27.90;;;;;;;3.15;57.70;97819.54;128954;1251;127720;-62
2023/01/17 16:06:46;;;;;;;20.90;12.60;;;;;;;3.04;57.86;97822.14;129069;1257;114795;-63
2023/01/17 16:10:06;;;;;;;12.10;7.00;;;;;;;2.93;57.93;97821.02;129086;1256;114833;-62
2023/01/17 16:13:12;;;;;;;9.10;5.80;;;;;;;2.82;57.97;97815.98;129103;1257;113331;-62
2023/01/17 16:16:22;;;;;;;15.80;9.10;;;;;;;2.73;58.07;97814.41;129017;1251;113419;-63